EBCI

Brussels South Charleroi Airport

Brussels, Belgium
TAF EBCI 230520Z 2306/2412 26008KT 9999 FEW030
Issued Valid From Valid To
Apr-23 @ 05:20 UTC
(4 hours ago)
Apr-23 @ 06:00 UTC
(4 hours ago)
Apr-24 @ 12:00 UTC
(-1 days ago)
Apr-23 @ 06:00 to Apr-24 @ 12:00
TAF EBCI 230520Z 2306/2412 26008KT 9999 FEW030
Wind Visibility Clouds
260° at 8 knots 10,000+ meters
  • Few at 3,000' AGL
TAF EBCI 230520Z 2306/2412 26008KT 9999 FEW030
Issued Apr-23 @ 05:20 UTC
(4 hours ago)
Valid From Apr-23 @ 06:00 UTC
(4 hours ago)
Valid To Apr-24 @ 12:00 UTC
(-1 days ago)
Apr-23 @ 06:00 - Apr-24 @ 12:00
Wind Visibility
260° at 8 knots 10,000+ meters
Clouds
  • Few at 3,000' AGL